createdAt,value
2023-02-18T00:00:37.314Z,7.74
2023-02-18T00:02:39.219Z,7.75
2023-02-18T00:04:40.946Z,7.74
2023-02-18T00:06:42.761Z,7.73
2023-02-18T00:08:46.872Z,7.72
2023-02-18T00:10:49.424Z,7.71
2023-02-18T00:12:51.224Z,7.68
2023-02-18T00:14:54.301Z,7.70
2023-02-18T00:16:56.060Z,7.68
2023-02-18T00:18:59.461Z,7.69
2023-02-18T00:21:03.155Z,7.69
2023-02-18T00:23:04.846Z,7.69
2023-02-18T00:25:08.349Z,7.66
2023-02-18T00:27:09.965Z,7.67
2023-02-18T00:29:12.209Z,7.67
2023-02-18T00:31:16.106Z,7.62
2023-02-18T00:33:17.768Z,7.65
2023-02-18T00:35:19.418Z,7.64
2023-02-18T00:37:21.003Z,7.64
2023-02-18T00:39:22.725Z,7.61
2023-02-18T00:41:28.540Z,7.62
2023-02-18T00:43:30.936Z,7.59
2023-02-18T00:45:32.525Z,7.56
2023-02-18T00:47:34.233Z,7.57
2023-02-18T00:49:35.879Z,7.51
2023-02-18T00:51:37.644Z,7.54
2023-02-18T00:53:39.907Z,7.52
2023-02-18T00:55:42.476Z,7.54
2023-02-18T00:57:45.803Z,7.49
2023-02-18T00:59:47.431Z,7.51
2023-02-18T01:01:49.063Z,7.46
2023-02-18T01:03:50.635Z,7.42
2023-02-18T01:05:53.115Z,7.42
2023-02-18T01:07:54.984Z,7.43
2023-02-18T01:09:56.539Z,7.42
2023-02-18T01:11:58.188Z,7.38
2023-02-18T01:14:01.205Z,7.34
2023-02-18T01:16:03.208Z,7.35
2023-02-18T01:18:05.564Z,7.34
2023-02-18T01:20:09.113Z,7.34
2023-02-18T01:22:10.803Z,7.30
2023-02-18T01:24:12.392Z,7.32
2023-02-18T01:26:14.139Z,7.30
2023-02-18T01:28:16.275Z,7.29
2023-02-18T01:30:20.253Z,7.25
2023-02-18T01:32:22.127Z,7.25
2023-02-18T01:34:23.698Z,7.22
2023-02-18T01:36:25.339Z,7.22
2023-02-18T01:38:27.024Z,7.21
2023-02-18T01:40:30.380Z,7.22
2023-02-18T01:42:32.033Z,7.21
2023-02-18T01:44:34.395Z,7.18
2023-02-18T01:46:37.468Z,7.17
2023-02-18T01:48:42.953Z,7.13
2023-02-18T01:50:47.847Z,7.13
2023-02-18T01:52:49.439Z,7.15
2023-02-18T01:54:54.709Z,7.14
2023-02-18T01:57:00.121Z,7.12
2023-02-18T01:59:07.880Z,7.08
2023-02-18T02:01:10.297Z,7.11
2023-02-18T02:03:13.398Z,7.13
2023-02-18T02:05:16.149Z,7.10
2023-02-18T02:07:21.493Z,7.09
2023-02-18T02:09:26.845Z,7.06
2023-02-18T02:12:10.630Z,7.11
2023-02-18T02:14:35.867Z,7.09
2023-02-18T02:16:44.062Z,7.05
2023-02-18T02:19:00.627Z,7.05
2023-02-18T02:21:39.941Z,7.03
2023-02-18T02:24:04.798Z,7.01
2023-02-18T02:26:38.735Z,7.03
2023-02-18T02:29:24.921Z,7.01
2023-02-18T02:32:01.429Z,7.00
2023-02-18T02:34:38.994Z,6.97
2023-02-18T02:36:50.688Z,6.96
2023-02-18T02:38:57.108Z,6.95
2023-02-18T02:41:08.524Z,6.96
2023-02-18T02:43:18.226Z,6.93
2023-02-18T02:45:29.166Z,6.94
2023-02-18T02:47:41.302Z,6.93
2023-02-18T02:49:50.976Z,6.91
2023-02-18T02:52:00.675Z,6.90
2023-02-18T02:54:16.168Z,6.84
2023-02-18T02:56:19.875Z,6.85
2023-02-18T02:58:22.408Z,6.89
2023-02-18T03:00:35.345Z,6.85
2023-02-18T03:02:49.317Z,6.88
2023-02-18T03:05:10.822Z,6.90
2023-02-18T03:07:48.767Z,6.88
2023-02-18T03:10:08.196Z,6.87
2023-02-18T03:12:19.425Z,6.83
2023-02-18T03:14:28.592Z,6.81
2023-02-18T03:16:37.794Z,6.80
2023-02-18T03:18:43.845Z,6.82
2023-02-18T03:20:54.313Z,6.80
2023-02-18T03:23:02.062Z,6.79
2023-02-18T03:25:04.936Z,6.78
2023-02-18T03:27:12.579Z,6.81
2023-02-18T03:29:18.684Z,6.77
2023-02-18T03:31:23.974Z,6.79
2023-02-18T03:33:30.533Z,6.80
2023-02-18T03:35:32.949Z,6.80
2023-02-18T03:37:41.332Z,6.80
2023-02-18T03:39:48.429Z,6.79
2023-02-18T03:41:50.310Z,6.79
2023-02-18T03:43:52.338Z,6.80
2023-02-18T03:45:54.357Z,6.77
2023-02-18T03:47:56.047Z,6.78
2023-02-18T03:49:58.080Z,6.79
2023-02-18T03:51:59.962Z,6.79
2023-02-18T03:54:01.659Z,6.79
2023-02-18T03:56:06.691Z,6.79
2023-02-18T03:58:08.751Z,6.79
2023-02-18T04:00:11.464Z,6.80
2023-02-18T04:02:13.208Z,6.80
2023-02-18T04:04:14.850Z,6.80
2023-02-18T04:06:16.618Z,6.78
2023-02-18T04:08:18.241Z,6.79
2023-02-18T04:10:20.258Z,6.76
2023-02-18T04:12:24.828Z,6.77
2023-02-18T04:14:26.605Z,6.80
2023-02-18T04:16:28.318Z,6.81
2023-02-18T04:18:30.178Z,6.80
2023-02-18T04:20:31.811Z,6.77
2023-02-18T04:22:33.820Z,6.78
2023-02-18T04:24:35.490Z,6.79
2023-02-18T04:26:37.254Z,6.78
2023-02-18T04:28:40.303Z,6.77
2023-02-18T04:30:42.393Z,6.76
2023-02-18T04:32:44.031Z,6.75
2023-02-18T04:34:45.882Z,6.75
2023-02-18T04:36:48.352Z,6.73
2023-02-18T04:38:50.033Z,6.73
2023-02-18T04:40:51.835Z,6.71
2023-02-18T04:42:53.947Z,6.71
2023-02-18T04:44:57.321Z,6.70
2023-02-18T04:46:59.155Z,6.68
2023-02-18T04:49:01.044Z,6.69
2023-02-18T04:51:02.772Z,6.69
2023-02-18T04:53:04.384Z,6.68
2023-02-18T04:55:07.295Z,6.67
2023-02-18T04:57:08.924Z,6.64
2023-02-18T04:59:11.254Z,6.63
2023-02-18T05:01:14.889Z,6.64
2023-02-18T05:03:17.400Z,6.65
2023-02-18T05:05:19.392Z,6.63
2023-02-18T05:07:21.155Z,6.61
2023-02-18T05:09:23.322Z,6.62
2023-02-18T05:11:25.101Z,6.64
2023-02-18T05:13:26.978Z,6.64
2023-02-18T05:15:28.586Z,6.61
2023-02-18T05:17:33.255Z,6.62
2023-02-18T05:19:35.111Z,6.61
2023-02-18T05:21:36.975Z,6.63
2023-02-18T05:23:38.877Z,6.62
2023-02-18T05:25:42.020Z,6.62
2023-02-18T05:27:44.127Z,6.61
2023-02-18T05:29:45.823Z,6.61
2023-02-18T05:31:47.821Z,6.63
2023-02-18T05:33:52.503Z,6.64
2023-02-18T05:35:54.367Z,6.62
2023-02-18T05:37:56.197Z,6.65
2023-02-18T05:39:58.088Z,6.64
2023-02-18T05:41:59.632Z,6.65
2023-02-18T05:44:01.556Z,6.66
2023-02-18T05:46:03.204Z,6.66
2023-02-18T05:48:05.399Z,6.66
2023-02-18T05:50:09.911Z,6.65
2023-02-18T05:52:12.203Z,6.65
2023-02-18T05:54:14.071Z,6.64
2023-02-18T05:56:15.884Z,6.63
2023-02-18T05:58:17.895Z,6.62
2023-02-18T06:00:19.810Z,6.63
2023-02-18T06:02:21.487Z,6.63
2023-02-18T06:04:23.459Z,6.63
2023-02-18T06:06:26.822Z,6.64
2023-02-18T06:08:28.482Z,6.64
2023-02-18T06:10:30.049Z,6.62
2023-02-18T06:12:31.631Z,6.62
2023-02-18T06:14:33.610Z,6.60
2023-02-18T06:16:35.212Z,6.62
2023-02-18T06:18:36.832Z,6.62
2023-02-18T06:20:39.370Z,6.63
2023-02-18T06:22:42.474Z,6.61
2023-02-18T06:24:44.132Z,6.64
2023-02-18T06:26:45.778Z,6.65
2023-02-18T06:28:47.578Z,6.66
2023-02-18T06:30:49.735Z,6.65
2023-02-18T06:32:51.410Z,6.65
2023-02-18T06:34:54.274Z,6.66
2023-02-18T06:36:55.821Z,6.66
2023-02-18T06:38:59.110Z,6.67
2023-02-18T06:41:01.223Z,6.68
2023-02-18T06:43:03.252Z,6.68
2023-02-18T06:45:05.158Z,6.70
2023-02-18T06:47:06.728Z,6.72
2023-02-18T06:49:08.343Z,6.73
2023-02-18T06:51:10.403Z,6.74
2023-02-18T06:53:12.815Z,6.74
2023-02-18T06:55:15.904Z,6.74
2023-02-18T06:57:17.518Z,6.77
2023-02-18T06:59:19.365Z,6.78
2023-02-18T07:01:21.122Z,6.77
2023-02-18T07:03:23.282Z,6.77
2023-02-18T07:05:24.925Z,6.78
2023-02-18T07:07:26.614Z,6.80
2023-02-18T07:09:28.669Z,6.81
2023-02-18T07:11:32.584Z,6.82
2023-02-18T07:13:34.646Z,6.83
2023-02-18T07:15:36.220Z,6.84
2023-02-18T07:17:37.858Z,6.84
2023-02-18T07:19:39.692Z,6.84
2023-02-18T07:21:41.213Z,6.86
2023-02-18T07:23:42.872Z,6.87
2023-02-18T07:25:44.431Z,6.88
2023-02-18T07:27:47.557Z,6.86
2023-02-18T07:29:49.306Z,6.87
2023-02-18T07:31:51.288Z,6.88
2023-02-18T07:33:53.841Z,6.89
2023-02-18T07:35:56.002Z,6.91
2023-02-18T07:37:57.652Z,6.92
2023-02-18T07:39:59.423Z,6.94
2023-02-18T07:42:02.395Z,6.95
2023-02-18T07:44:06.155Z,6.97
2023-02-18T07:46:08.205Z,6.97
2023-02-18T07:48:10.604Z,7.00
2023-02-18T07:50:12.391Z,7.00
2023-02-18T07:52:14.947Z,7.01
2023-02-18T07:54:17.723Z,7.02
2023-02-18T07:56:19.323Z,7.03
2023-02-18T07:58:23.842Z,7.08
2023-02-18T08:00:27.052Z,7.11
2023-02-18T08:02:28.964Z,7.18
2023-02-18T08:04:31.047Z,7.31
2023-02-18T08:06:36.704Z,7.42
2023-02-18T08:08:38.333Z,7.45
2023-02-18T08:10:40.005Z,7.47
2023-02-18T08:12:41.614Z,7.46
2023-02-18T08:14:43.417Z,7.51
2023-02-18T08:16:46.722Z,7.51
2023-02-18T08:18:49.458Z,7.51
2023-02-18T08:20:51.998Z,7.56
2023-02-18T08:22:53.623Z,7.60
2023-02-18T08:24:56.383Z,7.62
2023-02-18T08:27:01.179Z,7.63
2023-02-18T08:29:03.632Z,7.67
2023-02-18T08:31:05.720Z,7.70
2023-02-18T08:33:09.736Z,7.74
2023-02-18T08:35:13.735Z,7.74
2023-02-18T08:37:15.528Z,7.79
2023-02-18T08:39:17.209Z,7.80
2023-02-18T08:41:19.206Z,7.82
2023-02-18T08:43:21.284Z,7.84
2023-02-18T08:45:23.121Z,7.84
2023-02-18T08:48:19.641Z,7.85
2023-02-18T08:49:47.873Z,7.89
2023-02-18T08:51:49.800Z,7.90
2023-02-18T08:53:51.438Z,7.94
2023-02-18T08:55:53.024Z,7.95
2023-02-18T08:57:54.628Z,7.94
2023-02-18T08:59:56.586Z,7.97
2023-02-18T09:01:58.137Z,7.97
2023-02-18T09:03:59.872Z,8.00
2023-02-18T09:06:04.298Z,8.03
2023-02-18T09:08:06.064Z,8.06
2023-02-18T09:10:10.026Z,8.09
2023-02-18T09:12:11.841Z,8.11
2023-02-18T09:14:13.709Z,8.12
2023-02-18T09:16:17.275Z,8.14
2023-02-18T09:18:19.181Z,8.14
2023-02-18T09:20:21.014Z,8.15
2023-02-18T09:22:24.395Z,8.17
2023-02-18T09:24:25.953Z,8.20
2023-02-18T09:26:27.676Z,8.23
2023-02-18T09:28:29.254Z,8.26
2023-02-18T09:30:30.930Z,8.30
2023-02-18T09:32:34.994Z,8.36
2023-02-18T09:34:37.274Z,8.39
2023-02-18T09:36:39.593Z,8.42
2023-02-18T09:38:45.263Z,8.46
2023-02-18T09:40:52.223Z,8.50
2023-02-18T09:42:55.524Z,8.56
2023-02-18T09:45:01.193Z,8.59
2023-02-18T09:47:06.731Z,8.62
2023-02-18T09:49:16.252Z,8.64
2023-02-18T09:51:19.074Z,8.63
2023-02-18T09:53:21.758Z,8.63
2023-02-18T09:55:29.207Z,8.66
2023-02-18T09:57:44.601Z,8.69
2023-02-18T09:59:48.191Z,8.68
2023-02-18T10:01:52.818Z,8.70
2023-02-18T10:03:58.458Z,8.71
2023-02-18T10:06:05.593Z,8.72
2023-02-18T10:08:14.545Z,8.72
2023-02-18T10:10:21.198Z,8.73
2023-02-18T10:12:26.393Z,8.72
2023-02-18T10:14:29.160Z,8.72
2023-02-18T10:16:31.319Z,8.71
2023-02-18T10:18:39.757Z,8.73
2023-02-18T10:20:41.356Z,8.71
2023-02-18T10:22:43.023Z,8.72
2023-02-18T10:24:48.300Z,8.72
2023-02-18T10:26:50.592Z,8.72
2023-02-18T10:28:54.004Z,8.68
2023-02-18T10:31:02.025Z,8.69
2023-02-18T10:33:32.559Z,8.69
2023-02-18T10:35:44.343Z,8.70
2023-02-18T10:38:01.783Z,8.70
2023-02-18T10:40:20.529Z,8.72
2023-02-18T10:42:32.727Z,8.70
2023-02-18T10:44:50.605Z,8.73
2023-02-18T10:47:06.138Z,8.73
2023-02-18T10:49:31.701Z,8.73
2023-02-18T10:51:35.512Z,8.71
2023-02-18T10:53:41.464Z,8.71
2023-02-18T10:55:45.796Z,8.70
2023-02-18T10:57:50.339Z,8.70
2023-02-18T11:00:00.092Z,8.69
2023-02-18T11:02:05.052Z,8.68
2023-02-18T11:04:13.788Z,8.66
2023-02-18T11:06:19.780Z,8.63
2023-02-18T11:08:24.575Z,8.63
2023-02-18T11:10:31.136Z,8.62
2023-02-18T11:12:44.426Z,8.59
2023-02-18T11:14:48.851Z,8.55
2023-02-18T11:16:53.633Z,8.54
2023-02-18T11:18:55.247Z,8.49
2023-02-18T11:21:00.414Z,8.45
2023-02-18T11:23:20.316Z,8.42
2023-02-18T11:25:25.529Z,8.37
2023-02-18T11:27:32.453Z,8.34
2023-02-18T11:29:35.704Z,8.28
2023-02-18T11:31:42.328Z,8.24
2023-02-18T11:33:50.486Z,8.20
2023-02-18T11:35:55.877Z,8.14
2023-02-18T11:37:59.232Z,8.09
2023-02-18T11:40:04.826Z,8.05
2023-02-18T11:42:07.261Z,8.01
2023-02-18T11:44:24.742Z,7.99
2023-02-18T11:46:27.812Z,7.93
2023-02-18T11:48:29.970Z,7.89
2023-02-18T11:50:34.583Z,7.84
2023-02-18T11:52:41.259Z,7.81
2023-02-18T11:54:43.079Z,7.76
2023-02-18T11:56:56.800Z,7.72
2023-02-18T11:59:00.103Z,7.63
2023-02-18T12:01:06.815Z,7.63
2023-02-18T12:03:24.313Z,7.59
2023-02-18T12:05:28.364Z,7.53
2023-02-18T12:07:41.454Z,7.49
2023-02-18T12:09:48.532Z,7.46
2023-02-18T12:11:56.386Z,7.44
2023-02-18T12:13:59.279Z,7.42
2023-02-18T12:16:12.003Z,7.39
2023-02-18T12:18:56.466Z,7.38
2023-02-18T12:21:15.703Z,7.34
2023-02-18T12:23:30.609Z,7.31
2023-02-18T12:25:41.943Z,7.29
2023-02-18T12:27:52.340Z,7.24
2023-02-18T12:30:21.735Z,7.24
2023-02-18T12:32:36.520Z,7.21
2023-02-18T12:34:53.662Z,7.19
2023-02-18T12:37:11.316Z,7.15
2023-02-18T12:39:30.628Z,7.11
2023-02-18T12:42:02.372Z,7.08
2023-02-18T12:44:18.506Z,7.06
2023-02-18T12:46:32.391Z,7.02
2023-02-18T12:48:48.480Z,6.98
2023-02-18T12:51:02.550Z,6.95
2023-02-18T12:53:24.905Z,6.93
2023-02-18T12:55:43.709Z,6.91
2023-02-18T12:57:54.020Z,6.88
2023-02-18T13:00:32.103Z,6.86
2023-02-18T13:02:53.233Z,6.84
2023-02-18T13:05:04.686Z,6.83
2023-02-18T13:07:35.199Z,6.83
2023-02-18T13:09:54.690Z,6.82
2023-02-18T13:12:08.154Z,6.80
2023-02-18T13:14:14.604Z,6.78
2023-02-18T13:16:19.463Z,6.77
2023-02-18T13:18:26.913Z,6.76
2023-02-18T13:20:38.599Z,6.75
2023-02-18T13:22:42.095Z,6.74
2023-02-18T13:24:46.235Z,6.74
2023-02-18T13:26:50.955Z,6.72
2023-02-18T13:29:09.704Z,6.73
2023-02-18T13:31:22.372Z,6.72
2023-02-18T13:33:35.945Z,6.72
2023-02-18T13:35:43.086Z,6.71
2023-02-18T13:37:56.338Z,6.70
2023-02-18T13:40:00.464Z,6.68
2023-02-18T13:42:24.055Z,6.69
2023-02-18T13:45:02.333Z,6.68
2023-02-18T13:47:03.975Z,6.66
2023-02-18T13:49:11.386Z,6.64
2023-02-18T13:51:16.264Z,6.63
2023-02-18T13:53:24.894Z,6.64
2023-02-18T13:55:38.433Z,6.65
2023-02-18T13:57:40.936Z,6.64
2023-02-18T13:59:47.666Z,6.65
2023-02-18T14:01:51.573Z,6.66
2023-02-18T14:03:57.088Z,6.65
2023-02-18T14:05:59.840Z,6.65
2023-02-18T14:08:12.832Z,6.68
2023-02-18T14:10:32.991Z,6.68
2023-02-18T14:12:41.281Z,6.66
2023-02-18T14:14:45.112Z,6.66
2023-02-18T14:17:28.929Z,6.67
2023-02-18T14:19:31.517Z,6.67
2023-02-18T14:21:42.842Z,6.67
2023-02-18T14:23:57.172Z,6.67
2023-02-18T14:26:06.921Z,6.67
2023-02-18T14:28:38.300Z,6.69
2023-02-18T14:30:43.028Z,6.65
2023-02-18T14:32:45.649Z,6.64
2023-02-18T14:35:11.664Z,6.65
2023-02-18T14:38:05.940Z,6.67
2023-02-18T14:40:24.475Z,6.65
2023-02-18T14:42:38.425Z,6.63
2023-02-18T14:44:56.387Z,6.63
2023-02-18T14:47:20.999Z,6.62
2023-02-18T14:49:43.226Z,6.60
2023-02-18T14:51:46.830Z,6.60
2023-02-18T14:53:48.791Z,6.60
2023-02-18T14:55:54.194Z,6.59
2023-02-18T14:58:02.585Z,6.59
2023-02-18T15:00:06.521Z,6.59
2023-02-18T15:02:23.421Z,6.61
2023-02-18T15:04:26.387Z,6.61
2023-02-18T15:06:31.866Z,6.60
2023-02-18T15:08:39.055Z,6.60
2023-02-18T15:10:44.379Z,6.59
2023-02-18T15:12:46.220Z,6.57
2023-02-18T15:14:52.798Z,6.58
2023-02-18T15:16:55.035Z,6.57
2023-02-18T15:19:00.912Z,6.57
2023-02-18T15:21:04.685Z,6.55
2023-02-18T15:23:06.596Z,6.54
2023-02-18T15:25:13.202Z,6.55
2023-02-18T15:27:18.593Z,6.54
2023-02-18T15:29:22.611Z,6.53
2023-02-18T15:31:30.411Z,6.53
2023-02-18T15:33:32.311Z,6.52
2023-02-18T15:35:35.274Z,6.50
2023-02-18T15:37:36.912Z,6.48
2023-02-18T15:39:40.454Z,6.46
2023-02-18T15:41:42.247Z,6.44
2023-02-18T15:43:54.159Z,6.44
2023-02-18T15:45:58.901Z,6.41
2023-02-18T15:48:01.255Z,6.40
2023-02-18T15:50:03.724Z,6.36
2023-02-18T15:52:07.883Z,6.36
2023-02-18T15:54:18.233Z,6.34
2023-02-18T15:56:26.746Z,6.30
2023-02-18T15:58:32.481Z,6.29
2023-02-18T16:00:43.822Z,6.25
2023-02-18T16:02:54.717Z,6.23
2023-02-18T16:05:05.105Z,6.19
2023-02-18T16:07:23.304Z,6.17
2023-02-18T16:09:30.306Z,6.14
2023-02-18T16:11:36.128Z,6.11
2023-02-18T16:13:45.761Z,6.08
2023-02-18T16:15:50.035Z,6.05
2023-02-18T16:17:52.492Z,6.01
2023-02-18T16:20:04.845Z,5.98
2023-02-18T16:22:24.957Z,5.96
2023-02-18T16:24:29.518Z,5.91
2023-02-18T16:26:40.717Z,5.87
2023-02-18T16:28:43.353Z,5.82
2023-02-18T16:30:46.300Z,5.80
2023-02-18T16:32:48.369Z,5.77
2023-02-18T16:34:50.003Z,5.73
2023-02-18T16:36:51.802Z,5.70
2023-02-18T16:38:54.976Z,5.65
2023-02-18T16:40:56.882Z,5.61
2023-02-18T16:43:00.288Z,5.59
2023-02-18T16:45:01.859Z,5.54
2023-02-18T16:47:03.911Z,5.50
2023-02-18T16:49:05.447Z,5.46
2023-02-18T16:51:11.394Z,5.43
2023-02-18T16:53:14.085Z,5.39
2023-02-18T16:55:20.943Z,5.36
2023-02-18T16:57:22.723Z,5.33
2023-02-18T16:59:24.317Z,5.29
2023-02-18T17:01:28.664Z,5.26
2023-02-18T17:03:31.750Z,5.22
2023-02-18T17:05:35.088Z,5.19
2023-02-18T17:07:36.690Z,5.16
2023-02-18T17:09:40.075Z,5.13
2023-02-18T17:11:44.720Z,5.11
2023-02-18T17:13:46.862Z,5.07
2023-02-18T17:15:51.785Z,5.05
2023-02-18T17:17:53.866Z,5.01
2023-02-18T17:19:55.601Z,4.97
2023-02-18T17:21:57.415Z,4.95
2023-02-18T17:23:58.998Z,4.92
2023-02-18T17:26:00.957Z,4.86
2023-02-18T17:28:05.062Z,4.84
2023-02-18T17:30:07.317Z,4.82
2023-02-18T17:32:08.964Z,4.79
2023-02-18T17:34:15.420Z,4.77
2023-02-18T17:36:18.165Z,4.73
2023-02-18T17:38:20.233Z,4.70
2023-02-18T17:40:25.853Z,4.68
2023-02-18T17:42:27.428Z,4.64
2023-02-18T17:44:31.619Z,4.63
2023-02-18T17:46:33.213Z,4.59
2023-02-18T17:48:34.858Z,4.58
2023-02-18T17:50:36.721Z,4.56
2023-02-18T17:52:38.528Z,4.54
2023-02-18T17:54:40.089Z,4.52
2023-02-18T17:56:41.923Z,4.50
2023-02-18T17:58:43.477Z,4.47
2023-02-18T18:00:49.530Z,4.45
2023-02-18T18:02:51.604Z,4.42
2023-02-18T18:04:54.248Z,4.41
2023-02-18T18:06:56.229Z,4.40
2023-02-18T18:08:58.887Z,4.37
2023-02-18T18:11:01.724Z,4.36
2023-02-18T18:13:05.763Z,4.33
2023-02-18T18:15:21.269Z,4.31
2023-02-18T18:17:24.462Z,4.29
2023-02-18T18:19:26.114Z,4.26
2023-02-18T18:21:31.027Z,4.25
2023-02-18T18:23:33.095Z,4.21
2023-02-18T18:25:38.550Z,4.20
2023-02-18T18:27:40.403Z,4.17
2023-02-18T18:29:44.530Z,4.17
2023-02-18T18:31:47.401Z,4.14
2023-02-18T18:33:52.152Z,4.12
2023-02-18T18:35:55.989Z,4.11
2023-02-18T18:37:58.485Z,4.09
2023-02-18T18:40:01.133Z,4.06
2023-02-18T18:42:02.805Z,4.05
2023-02-18T18:44:05.064Z,4.03
2023-02-18T18:46:06.802Z,4.01
2023-02-18T18:48:08.506Z,3.98
2023-02-18T18:50:11.742Z,3.97
2023-02-18T18:52:16.305Z,3.97
2023-02-18T18:54:18.264Z,3.94
2023-02-18T18:56:20.205Z,3.94
2023-02-18T18:58:21.962Z,3.92
2023-02-18T19:00:26.246Z,3.93
2023-02-18T19:02:28.241Z,3.93
2023-02-18T19:04:29.881Z,3.92
2023-02-18T19:06:33.083Z,3.92
2023-02-18T19:08:34.707Z,3.92
2023-02-18T19:10:38.301Z,3.93
2023-02-18T19:12:40.308Z,3.94
2023-02-18T19:14:41.839Z,3.93
2023-02-18T19:16:43.412Z,3.92
2023-02-18T19:18:45.709Z,3.92
2023-02-18T19:20:48.318Z,3.93
2023-02-18T19:22:52.013Z,3.93
2023-02-18T19:24:53.685Z,3.96
2023-02-18T19:26:55.323Z,3.95
2023-02-18T19:28:56.977Z,3.95
2023-02-18T19:30:58.693Z,3.95
2023-02-18T19:33:01.699Z,3.96
2023-02-18T19:35:03.664Z,3.96
2023-02-18T19:37:05.488Z,3.96
2023-02-18T19:39:09.510Z,3.97
2023-02-18T19:41:14.565Z,3.94
2023-02-18T19:43:16.607Z,3.97
2023-02-18T19:45:20.988Z,3.98
2023-02-18T19:47:23.635Z,3.97
2023-02-18T19:49:26.360Z,3.98
2023-02-18T19:51:28.148Z,3.97
2023-02-18T19:53:30.257Z,3.97
2023-02-18T19:55:34.510Z,3.98
2023-02-18T19:57:36.346Z,3.97
2023-02-18T19:59:38.128Z,3.97
2023-02-18T20:01:40.485Z,3.96
2023-02-18T20:03:42.882Z,3.98
2023-02-18T20:05:44.606Z,3.98
2023-02-18T20:07:46.687Z,3.98
2023-02-18T20:09:52.024Z,3.98
2023-02-18T20:11:56.691Z,3.98
2023-02-18T20:13:58.388Z,4.00
2023-02-18T20:16:00.202Z,4.00
2023-02-18T20:18:02.032Z,4.00
2023-02-18T20:20:04.247Z,4.01
2023-02-18T20:22:05.928Z,4.01
2023-02-18T20:24:10.006Z,4.01
2023-02-18T20:26:13.256Z,4.01
2023-02-18T20:28:16.527Z,4.02
2023-02-18T20:30:19.639Z,4.03
2023-02-18T20:32:24.365Z,4.04
2023-02-18T20:34:26.700Z,4.03
2023-02-18T20:36:28.949Z,4.05
2023-02-18T20:38:31.083Z,4.05
2023-02-18T20:40:32.685Z,4.05
2023-02-18T20:42:34.282Z,4.05
2023-02-18T20:44:37.699Z,4.06
2023-02-18T20:46:39.924Z,4.05
2023-02-18T20:48:43.739Z,4.05
2023-02-18T20:50:45.273Z,4.05
2023-02-18T20:52:48.334Z,4.04
2023-02-18T20:54:51.450Z,4.05
2023-02-18T20:56:53.036Z,4.05
2023-02-18T20:58:54.757Z,4.05
2023-02-18T21:01:00.010Z,4.04
2023-02-18T21:03:01.759Z,4.04
2023-02-18T21:05:03.929Z,4.05
2023-02-18T21:07:05.864Z,4.05
2023-02-18T21:09:07.894Z,4.04
2023-02-18T21:11:12.201Z,4.05
2023-02-18T21:13:15.742Z,4.05
2023-02-18T21:15:17.418Z,4.07
2023-02-18T21:17:23.286Z,4.08
2023-02-18T21:19:25.372Z,4.09
2023-02-18T21:21:27.278Z,4.08
2023-02-18T21:23:29.268Z,4.08
2023-02-18T21:25:31.517Z,4.09
2023-02-18T21:27:33.168Z,4.09
2023-02-18T21:29:34.921Z,4.10
2023-02-18T21:31:39.041Z,4.10
2023-02-18T21:33:44.738Z,4.10
2023-02-18T21:35:46.741Z,4.09
2023-02-18T21:37:48.904Z,4.10
2023-02-18T21:39:50.476Z,4.10
2023-02-18T21:41:52.183Z,4.10
2023-02-18T21:43:54.422Z,4.10
2023-02-18T21:46:05.695Z,4.12
2023-02-18T21:48:07.226Z,4.11
2023-02-18T21:50:11.363Z,4.12
2023-02-18T21:52:12.922Z,4.12
2023-02-18T21:54:15.683Z,4.13
2023-02-18T21:56:17.443Z,4.12
2023-02-18T21:58:19.089Z,4.12
2023-02-18T22:00:21.435Z,4.10
2023-02-18T22:02:25.392Z,4.11
2023-02-18T22:04:29.832Z,4.11
2023-02-18T22:06:33.115Z,4.10
2023-02-18T22:08:34.905Z,4.09
2023-02-18T22:10:38.460Z,4.10
2023-02-18T22:12:40.382Z,4.08
2023-02-18T22:14:42.668Z,4.07
2023-02-18T22:16:45.454Z,4.07
2023-02-18T22:18:48.699Z,4.09
2023-02-18T22:20:50.645Z,4.07
2023-02-18T22:22:54.980Z,4.06
2023-02-18T22:24:56.747Z,4.07
2023-02-18T22:26:59.636Z,4.08
2023-02-18T22:29:01.583Z,4.08
2023-02-18T22:31:06.874Z,4.08
2023-02-18T22:33:08.545Z,4.08
2023-02-18T22:35:10.159Z,4.08
2023-02-18T22:37:11.884Z,4.08
2023-02-18T22:39:16.085Z,4.07
2023-02-18T22:41:22.457Z,4.08
2023-02-18T22:43:23.978Z,4.08
2023-02-18T22:45:25.982Z,4.07
2023-02-18T22:47:28.106Z,4.09
2023-02-18T22:49:30.208Z,4.08
2023-02-18T22:51:35.616Z,4.08
2023-02-18T22:53:38.134Z,4.08
2023-02-18T22:55:41.161Z,4.09
2023-02-18T22:57:43.032Z,4.09
2023-02-18T22:59:45.653Z,4.09
2023-02-18T23:01:49.425Z,4.08
2023-02-18T23:03:52.594Z,4.09
2023-02-18T23:05:54.437Z,4.10
2023-02-18T23:07:56.297Z,4.10
2023-02-18T23:09:58.128Z,4.10
2023-02-18T23:12:01.600Z,4.09
2023-02-18T23:14:03.272Z,4.10
2023-02-18T23:16:08.318Z,4.11
2023-02-18T23:18:09.889Z,4.10
2023-02-18T23:20:11.469Z,4.09
2023-02-18T23:22:16.114Z,4.10
2023-02-18T23:24:18.108Z,4.10
2023-02-18T23:26:21.542Z,4.10
2023-02-18T23:28:24.542Z,4.11
2023-02-18T23:30:26.198Z,4.10
2023-02-18T23:32:29.039Z,4.10
2023-02-18T23:34:31.031Z,4.10
2023-02-18T23:36:34.664Z,4.09
2023-02-18T23:38:36.471Z,4.10
2023-02-18T23:40:38.542Z,4.10
2023-02-18T23:42:40.392Z,4.10
2023-02-18T23:44:43.574Z,4.08
2023-02-18T23:46:46.209Z,4.09
2023-02-18T23:48:47.953Z,4.08
2023-02-18T23:50:49.637Z,4.07
2023-02-18T23:52:54.841Z,4.08
2023-02-18T23:54:56.471Z,4.06
2023-02-18T23:56:58.358Z,4.05
2023-02-18T23:59:02.360Z,4.05
